CheckWX is a tool to help pilots better visualize weather data.  It is not intended as a substitute for an official pre-flight weather briefing.

12:30:46 UTC

KHUA METAR
Redstone AAF Airport
Redstone Arsnl Huntsville, Alabama, USA
Current

23 mins ago

KHUA 131208Z AUTO 17005KT 9SM BKN006 OVC010 06/05 A3006 RMK AO2 CIG 006V009 SLP182
Observed
Dec-13 @ 12:08 UTC
Wind
  • 170° at 5 KTS
Visibility
9 SM
Flight Rules
IFR
Cloud Levels
  • Broken at 600' AGL
  • Overcast at 1,000' AGL
Temperature
C / 43°F
Dewpoint
C / 41°F
Humidity
93%
Altimeter
30.06" Hg
Pressure
1017.92 hPa
Previous

33 mins ago

KHUA 131158Z AUTO 17005KT 10SM OVC009 06/05 A3007 RMK AO2 SLP185 60000 T00600046 10070 20059 57017
Observed
Dec-13 @ 11:58 UTC
Wind
  • 170° at 5 KTS
Visibility
10 SM
Flight Rules
IFR
Cloud Levels
  • Overcast at 900' AGL
Temperature
C / 43°F
Dewpoint
C / 41°F
Humidity
93%
Altimeter
30.07" Hg
Pressure
1018.32 hPa
Previous

2 hours ago

KHUA 131058Z AUTO 17007KT 10SM OVC011 06/05 A3008 RMK AO2 RAE02 SLP188 P0000 T00610045
Observed
Dec-13 @ 10:58 UTC
Wind
  • 170° at 7 KTS
Visibility
10 SM
Flight Rules
MVFR
Cloud Levels
  • Overcast at 1,100' AGL
Temperature
C / 43°F
Dewpoint
C / 41°F
Humidity
93%
Altimeter
30.08" Hg
Pressure
1018.62 hPa
Current Rain
0.01"